sensor_id;sensor_type;location;lat;lon;timestamp;P1;durP1;ratioP1;P2;durP2;ratioP2
41568;SDS011;27283;52.504;13.358;2024-03-17T00:00:22;20.87;;;2.93;;
41568;SDS011;27283;52.504;13.358;2024-03-17T00:03:12;23.40;;;3.23;;
41568;SDS011;27283;52.504;13.358;2024-03-17T00:05:47;17.67;;;2.70;;
41568;SDS011;27283;52.504;13.358;2024-03-17T00:08:22;26.53;;;4.40;;
41568;SDS011;27283;52.504;13.358;2024-03-17T00:10:56;15.37;;;2.57;;
41568;SDS011;27283;52.504;13.358;2024-03-17T00:13:26;29.33;;;5.23;;
41568;SDS011;27283;52.504;13.358;2024-03-17T00:16:00;17.60;;;2.60;;
41568;SDS011;27283;52.504;13.358;2024-03-17T00:18:40;22.33;;;2.83;;
41568;SDS011;27283;52.504;13.358;2024-03-17T00:21:14;25.00;;;4.17;;
41568;SDS011;27283;52.504;13.358;2024-03-17T00:23:42;16.27;;;2.37;;
41568;SDS011;27283;52.504;13.358;2024-03-17T00:26:19;28.10;;;2.90;;
41568;SDS011;27283;52.504;13.358;2024-03-17T00:28:47;22.17;;;2.63;;
41568;SDS011;27283;52.504;13.358;2024-03-17T00:31:21;31.70;;;3.33;;
41568;SDS011;27283;52.504;13.358;2024-03-17T00:33:51;23.50;;;3.50;;
41568;SDS011;27283;52.504;13.358;2024-03-17T00:36:22;22.77;;;3.77;;
41568;SDS011;27283;52.504;13.358;2024-03-17T00:38:50;18.73;;;3.60;;
41568;SDS011;27283;52.504;13.358;2024-03-17T00:41:23;26.60;;;3.27;;
41568;SDS011;27283;52.504;13.358;2024-03-17T00:44:13;19.60;;;2.37;;
41568;SDS011;27283;52.504;13.358;2024-03-17T00:46:47;22.20;;;3.53;;
41568;SDS011;27283;52.504;13.358;2024-03-17T00:49:15;28.40;;;3.40;;
41568;SDS011;27283;52.504;13.358;2024-03-17T00:51:45;23.10;;;3.53;;
41568;SDS011;27283;52.504;13.358;2024-03-17T00:54:16;29.37;;;4.17;;
41568;SDS011;27283;52.504;13.358;2024-03-17T00:56:48;20.87;;;2.87;;
41568;SDS011;27283;52.504;13.358;2024-03-17T00:59:17;29.27;;;2.73;;
41568;SDS011;27283;52.504;13.358;2024-03-17T01:01:54;26.80;;;2.73;;
41568;SDS011;27283;52.504;13.358;2024-03-17T01:04:23;22.37;;;4.63;;
41568;SDS011;27283;52.504;13.358;2024-03-17T01:07:07;23.37;;;2.83;;
41568;SDS011;27283;52.504;13.358;2024-03-17T01:09:36;26.60;;;2.53;;
41568;SDS011;27283;52.504;13.358;2024-03-17T01:12:09;27.13;;;3.03;;
41568;SDS011;27283;52.504;13.358;2024-03-17T01:14:38;22.50;;;2.70;;
41568;SDS011;27283;52.504;13.358;2024-03-17T01:17:14;31.93;;;3.23;;
41568;SDS011;27283;52.504;13.358;2024-03-17T01:19:48;19.60;;;2.43;;
41568;SDS011;27283;52.504;13.358;2024-03-17T01:22:28;21.13;;;2.87;;
41568;SDS011;27283;52.504;13.358;2024-03-17T01:24:57;20.00;;;2.80;;
41568;SDS011;27283;52.504;13.358;2024-03-17T01:27:32;19.23;;;2.93;;
41568;SDS011;27283;52.504;13.358;2024-03-17T01:30:00;25.77;;;2.77;;
41568;SDS011;27283;52.504;13.358;2024-03-17T01:32:35;22.80;;;3.10;;
41568;SDS011;27283;52.504;13.358;2024-03-17T01:35:06;24.07;;;3.30;;
41568;SDS011;27283;52.504;13.358;2024-03-17T01:37:41;24.07;;;2.73;;
41568;SDS011;27283;52.504;13.358;2024-03-17T01:40:11;20.27;;;2.77;;
41568;SDS011;27283;52.504;13.358;2024-03-17T01:42:44;22.73;;;3.10;;
41568;SDS011;27283;52.504;13.358;2024-03-17T01:45:27;23.43;;;3.00;;
41568;SDS011;27283;52.504;13.358;2024-03-17T01:48:00;28.77;;;3.03;;
41568;SDS011;27283;52.504;13.358;2024-03-17T01:50:33;22.60;;;2.67;;
41568;SDS011;27283;52.504;13.358;2024-03-17T01:53:05;24.63;;;3.07;;
41568;SDS011;27283;52.504;13.358;2024-03-17T01:55:38;26.23;;;3.40;;
41568;SDS011;27283;52.504;13.358;2024-03-17T01:58:09;25.57;;;3.37;;
41568;SDS011;27283;52.504;13.358;2024-03-17T02:00:40;22.73;;;2.53;;
41568;SDS011;27283;52.504;13.358;2024-03-17T02:03:13;28.33;;;2.47;;
41568;SDS011;27283;52.504;13.358;2024-03-17T02:05:45;22.10;;;2.20;;
41568;SDS011;27283;52.504;13.358;2024-03-17T02:08:16;28.47;;;3.20;;
41568;SDS011;27283;52.504;13.358;2024-03-17T02:10:52;22.00;;;3.23;;
41568;SDS011;27283;52.504;13.358;2024-03-17T02:13:21;21.83;;;2.53;;
41568;SDS011;27283;52.504;13.358;2024-03-17T02:15:55;32.20;;;6.70;;
41568;SDS011;27283;52.504;13.358;2024-03-17T02:18:27;29.67;;;4.90;;
41568;SDS011;27283;52.504;13.358;2024-03-17T02:20:57;33.10;;;2.97;;
41568;SDS011;27283;52.504;13.358;2024-03-17T02:23:33;24.83;;;2.63;;
41568;SDS011;27283;52.504;13.358;2024-03-17T02:26:12;23.07;;;2.93;;
41568;SDS011;27283;52.504;13.358;2024-03-17T02:28:40;24.47;;;4.40;;
41568;SDS011;27283;52.504;13.358;2024-03-17T02:31:12;18.33;;;2.30;;
41568;SDS011;27283;52.504;13.358;2024-03-17T02:33:45;27.80;;;2.90;;
41568;SDS011;27283;52.504;13.358;2024-03-17T02:36:13;23.73;;;2.87;;
41568;SDS011;27283;52.504;13.358;2024-03-17T02:38:47;29.83;;;3.43;;
41568;SDS011;27283;52.504;13.358;2024-03-17T02:41:30;25.77;;;2.63;;
41568;SDS011;27283;52.504;13.358;2024-03-17T02:44:01;17.13;;;2.47;;
41568;SDS011;27283;52.504;13.358;2024-03-17T02:46:32;23.03;;;2.43;;
41568;SDS011;27283;52.504;13.358;2024-03-17T02:49:07;20.50;;;2.43;;
41568;SDS011;27283;52.504;13.358;2024-03-17T02:51:40;22.53;;;2.40;;
41568;SDS011;27283;52.504;13.358;2024-03-17T02:54:14;24.10;;;3.20;;
41568;SDS011;27283;52.504;13.358;2024-03-17T02:56:50;30.93;;;6.83;;
41568;SDS011;27283;52.504;13.358;2024-03-17T02:59:21;26.60;;;4.67;;
41568;SDS011;27283;52.504;13.358;2024-03-17T03:01:52;23.20;;;3.10;;
41568;SDS011;27283;52.504;13.358;2024-03-17T03:04:25;18.13;;;2.70;;
41568;SDS011;27283;52.504;13.358;2024-03-17T03:06:59;26.30;;;3.20;;
41568;SDS011;27283;52.504;13.358;2024-03-17T03:09:36;20.73;;;2.70;;
41568;SDS011;27283;52.504;13.358;2024-03-17T03:12:09;18.80;;;2.80;;
41568;SDS011;27283;52.504;13.358;2024-03-17T03:14:43;19.73;;;2.90;;
41568;SDS011;27283;52.504;13.358;2024-03-17T03:17:16;29.23;;;3.03;;
41568;SDS011;27283;52.504;13.358;2024-03-17T03:19:46;23.10;;;2.97;;
41568;SDS011;27283;52.504;13.358;2024-03-17T03:22:19;25.63;;;3.20;;
41568;SDS011;27283;52.504;13.358;2024-03-17T03:24:54;29.70;;;4.10;;
41568;SDS011;27283;52.504;13.358;2024-03-17T03:27:24;25.70;;;3.40;;
41568;SDS011;27283;52.504;13.358;2024-03-17T03:29:58;18.60;;;2.50;;
41568;SDS011;27283;52.504;13.358;2024-03-17T03:32:34;23.00;;;2.90;;
41568;SDS011;27283;52.504;13.358;2024-03-17T03:35:07;26.90;;;2.97;;
41568;SDS011;27283;52.504;13.358;2024-03-17T03:37:39;29.23;;;2.60;;
41568;SDS011;27283;52.504;13.358;2024-03-17T03:40:13;22.37;;;2.63;;
41568;SDS011;27283;52.504;13.358;2024-03-17T03:42:45;20.70;;;2.90;;
41568;SDS011;27283;52.504;13.358;2024-03-17T03:45:18;24.73;;;2.70;;
41568;SDS011;27283;52.504;13.358;2024-03-17T03:47:50;24.40;;;3.10;;
41568;SDS011;27283;52.504;13.358;2024-03-17T03:50:21;26.10;;;3.03;;
41568;SDS011;27283;52.504;13.358;2024-03-17T03:52:55;23.67;;;2.83;;
41568;SDS011;27283;52.504;13.358;2024-03-17T03:55:33;23.60;;;3.07;;
41568;SDS011;27283;52.504;13.358;2024-03-17T03:58:04;23.37;;;2.70;;
41568;SDS011;27283;52.504;13.358;2024-03-17T04:00:36;23.17;;;3.17;;
41568;SDS011;27283;52.504;13.358;2024-03-17T04:03:10;17.17;;;3.37;;
41568;SDS011;27283;52.504;13.358;2024-03-17T04:05:41;23.93;;;3.07;;
41568;SDS011;27283;52.504;13.358;2024-03-17T04:08:12;20.77;;;2.80;;
41568;SDS011;27283;52.504;13.358;2024-03-17T04:10:46;20.23;;;2.60;;
41568;SDS011;27283;52.504;13.358;2024-03-17T04:13:18;19.37;;;2.70;;
41568;SDS011;27283;52.504;13.358;2024-03-17T04:15:53;37.37;;;6.33;;
41568;SDS011;27283;52.504;13.358;2024-03-17T04:18:24;33.00;;;4.70;;
41568;SDS011;27283;52.504;13.358;2024-03-17T04:21:00;19.00;;;2.30;;
41568;SDS011;27283;52.504;13.358;2024-03-17T04:23:33;24.30;;;3.30;;
41568;SDS011;27283;52.504;13.358;2024-03-17T04:26:07;29.17;;;2.93;;
41568;SDS011;27283;52.504;13.358;2024-03-17T04:28:41;30.27;;;3.23;;
41568;SDS011;27283;52.504;13.358;2024-03-17T04:31:13;27.17;;;3.00;;
41568;SDS011;27283;52.504;13.358;2024-03-17T04:33:45;28.23;;;3.47;;
41568;SDS011;27283;52.504;13.358;2024-03-17T04:36:19;30.23;;;4.27;;
41568;SDS011;27283;52.504;13.358;2024-03-17T04:38:52;21.50;;;3.50;;
41568;SDS011;27283;52.504;13.358;2024-03-17T04:41:32;25.50;;;3.30;;
41568;SDS011;27283;52.504;13.358;2024-03-17T04:44:06;27.70;;;3.53;;
41568;SDS011;27283;52.504;13.358;2024-03-17T04:46:38;23.80;;;3.47;;
41568;SDS011;27283;52.504;13.358;2024-03-17T04:49:12;26.80;;;3.57;;
41568;SDS011;27283;52.504;13.358;2024-03-17T04:51:44;32.87;;;3.87;;
41568;SDS011;27283;52.504;13.358;2024-03-17T04:54:15;17.83;;;3.53;;
41568;SDS011;27283;52.504;13.358;2024-03-17T04:56:54;24.13;;;3.13;;
41568;SDS011;27283;52.504;13.358;2024-03-17T04:59:25;23.57;;;3.10;;
41568;SDS011;27283;52.504;13.358;2024-03-17T05:01:57;23.90;;;3.13;;
41568;SDS011;27283;52.504;13.358;2024-03-17T05:04:28;22.87;;;3.17;;
41568;SDS011;27283;52.504;13.358;2024-03-17T05:06:59;23.20;;;3.30;;
41568;SDS011;27283;52.504;13.358;2024-03-17T05:09:33;31.23;;;3.50;;
41568;SDS011;27283;52.504;13.358;2024-03-17T05:12:10;48.40;;;13.07;;
41568;SDS011;27283;52.504;13.358;2024-03-17T05:14:42;24.30;;;3.37;;
41568;SDS011;27283;52.504;13.358;2024-03-17T05:17:14;25.60;;;4.23;;
41568;SDS011;27283;52.504;13.358;2024-03-17T05:19:49;33.07;;;5.53;;
41568;SDS011;27283;52.504;13.358;2024-03-17T05:22:24;24.60;;;3.73;;
41568;SDS011;27283;52.504;13.358;2024-03-17T05:24:59;29.93;;;4.00;;
41568;SDS011;27283;52.504;13.358;2024-03-17T05:27:36;20.13;;;2.73;;
41568;SDS011;27283;52.504;13.358;2024-03-17T05:30:08;18.23;;;2.73;;
41568;SDS011;27283;52.504;13.358;2024-03-17T05:32:42;20.33;;;2.70;;
41568;SDS011;27283;52.504;13.358;2024-03-17T05:35:15;24.53;;;3.30;;
41568;SDS011;27283;52.504;13.358;2024-03-17T05:37:49;27.00;;;3.30;;
41568;SDS011;27283;52.504;13.358;2024-03-17T05:40:31;25.73;;;2.80;;
41568;SDS011;27283;52.504;13.358;2024-03-17T05:43:07;28.40;;;3.00;;
41568;SDS011;27283;52.504;13.358;2024-03-17T05:45:39;33.97;;;4.43;;
41568;SDS011;27283;52.504;13.358;2024-03-17T05:48:12;25.73;;;3.47;;
41568;SDS011;27283;52.504;13.358;2024-03-17T05:50:43;21.93;;;3.00;;
41568;SDS011;27283;52.504;13.358;2024-03-17T05:53:15;24.60;;;3.00;;
41568;SDS011;27283;52.504;13.358;2024-03-17T05:55:46;44.93;;;9.10;;
41568;SDS011;27283;52.504;13.358;2024-03-17T05:58:26;30.90;;;5.67;;
41568;SDS011;27283;52.504;13.358;2024-03-17T06:01:05;24.63;;;3.03;;
41568;SDS011;27283;52.504;13.358;2024-03-17T06:03:41;26.90;;;3.90;;
41568;SDS011;27283;52.504;13.358;2024-03-17T06:06:12;30.33;;;4.00;;
41568;SDS011;27283;52.504;13.358;2024-03-17T06:08:54;28.73;;;3.77;;
41568;SDS011;27283;52.504;13.358;2024-03-17T06:11:31;33.27;;;6.27;;
41568;SDS011;27283;52.504;13.358;2024-03-17T06:14:08;21.07;;;4.47;;
41568;SDS011;27283;52.504;13.358;2024-03-17T06:16:41;25.57;;;3.83;;
41568;SDS011;27283;52.504;13.358;2024-03-17T06:19:12;24.90;;;3.30;;
41568;SDS011;27283;52.504;13.358;2024-03-17T06:21:52;29.60;;;3.80;;
41568;SDS011;27283;52.504;13.358;2024-03-17T06:24:35;37.40;;;3.80;;
41568;SDS011;27283;52.504;13.358;2024-03-17T06:27:11;23.17;;;3.17;;
41568;SDS011;27283;52.504;13.358;2024-03-17T06:29:50;29.10;;;3.00;;
41568;SDS011;27283;52.504;13.358;2024-03-17T06:32:28;20.57;;;2.83;;
41568;SDS011;27283;52.504;13.358;2024-03-17T06:35:04;23.00;;;3.07;;
41568;SDS011;27283;52.504;13.358;2024-03-17T06:37:38;24.60;;;3.00;;
41568;SDS011;27283;52.504;13.358;2024-03-17T06:40:11;23.30;;;3.33;;
41568;SDS011;27283;52.504;13.358;2024-03-17T06:42:45;29.37;;;3.73;;
41568;SDS011;27283;52.504;13.358;2024-03-17T06:45:21;24.17;;;2.97;;
41568;SDS011;27283;52.504;13.358;2024-03-17T06:47:55;24.00;;;3.60;;
41568;SDS011;27283;52.504;13.358;2024-03-17T06:50:29;21.40;;;3.27;;
41568;SDS011;27283;52.504;13.358;2024-03-17T06:53:08;33.20;;;3.27;;
41568;SDS011;27283;52.504;13.358;2024-03-17T06:55:53;26.97;;;3.27;;
41568;SDS011;27283;52.504;13.358;2024-03-17T06:58:25;23.60;;;2.93;;
41568;SDS011;27283;52.504;13.358;2024-03-17T07:01:06;23.33;;;3.03;;
41568;SDS011;27283;52.504;13.358;2024-03-17T07:03:40;31.60;;;4.60;;
41568;SDS011;27283;52.504;13.358;2024-03-17T07:06:12;24.13;;;2.97;;
41568;SDS011;27283;52.504;13.358;2024-03-17T07:08:44;27.90;;;2.90;;
41568;SDS011;27283;52.504;13.358;2024-03-17T07:11:16;20.10;;;2.50;;
41568;SDS011;27283;52.504;13.358;2024-03-17T07:13:54;21.63;;;3.13;;
41568;SDS011;27283;52.504;13.358;2024-03-17T07:16:28;21.67;;;3.00;;
41568;SDS011;27283;52.504;13.358;2024-03-17T07:19:01;18.67;;;3.00;;
41568;SDS011;27283;52.504;13.358;2024-03-17T07:21:43;28.10;;;2.43;;
41568;SDS011;27283;52.504;13.358;2024-03-17T07:24:14;18.33;;;2.57;;
41568;SDS011;27283;52.504;13.358;2024-03-17T07:26:48;20.70;;;2.93;;
41568;SDS011;27283;52.504;13.358;2024-03-17T07:29:22;18.90;;;2.67;;
41568;SDS011;27283;52.504;13.358;2024-03-17T07:32:04;19.03;;;2.40;;
41568;SDS011;27283;52.504;13.358;2024-03-17T07:34:37;15.10;;;2.57;;
41568;SDS011;27283;52.504;13.358;2024-03-17T07:37:12;17.20;;;2.60;;
41568;SDS011;27283;52.504;13.358;2024-03-17T07:39:43;23.47;;;2.63;;
41568;SDS011;27283;52.504;13.358;2024-03-17T07:42:20;21.63;;;2.43;;
41568;SDS011;27283;52.504;13.358;2024-03-17T07:44:54;16.73;;;2.70;;
41568;SDS011;27283;52.504;13.358;2024-03-17T07:47:31;22.73;;;2.30;;
41568;SDS011;27283;52.504;13.358;2024-03-17T07:50:04;23.47;;;2.57;;
41568;SDS011;27283;52.504;13.358;2024-03-17T07:52:36;26.93;;;2.60;;
41568;SDS011;27283;52.504;13.358;2024-03-17T07:55:10;17.83;;;2.47;;
41568;SDS011;27283;52.504;13.358;2024-03-17T07:57:43;19.77;;;2.50;;
41568;SDS011;27283;52.504;13.358;2024-03-17T08:00:16;22.60;;;3.07;;
41568;SDS011;27283;52.504;13.358;2024-03-17T08:02:51;25.90;;;2.50;;
41568;SDS011;27283;52.504;13.358;2024-03-17T08:05:26;17.25;;;2.85;;
41568;SDS011;27283;52.504;13.358;2024-03-17T08:08:00;13.87;;;2.43;;
41568;SDS011;27283;52.504;13.358;2024-03-17T08:10:35;17.67;;;2.47;;
41568;SDS011;27283;52.504;13.358;2024-03-17T08:13:10;14.63;;;2.30;;
41568;SDS011;27283;52.504;13.358;2024-03-17T08:15:55;16.25;;;2.20;;
41568;SDS011;27283;52.504;13.358;2024-03-17T08:18:30;13.73;;;2.45;;
41568;SDS011;27283;52.504;13.358;2024-03-17T08:21:05;14.60;;;2.40;;
41568;SDS011;27283;52.504;13.358;2024-03-17T08:23:40;17.48;;;2.75;;
41568;SDS011;27283;52.504;13.358;2024-03-17T08:26:18;17.13;;;2.60;;
41568;SDS011;27283;52.504;13.358;2024-03-17T08:28:51;16.13;;;2.40;;
41568;SDS011;27283;52.504;13.358;2024-03-17T08:31:24;17.98;;;3.22;;
41568;SDS011;27283;52.504;13.358;2024-03-17T08:33:58;14.70;;;2.10;;
41568;SDS011;27283;52.504;13.358;2024-03-17T08:36:29;17.70;;;2.30;;
41568;SDS011;27283;52.504;13.358;2024-03-17T08:39:01;14.25;;;2.53;;
41568;SDS011;27283;52.504;13.358;2024-03-17T08:41:35;13.95;;;2.60;;
41568;SDS011;27283;52.504;13.358;2024-03-17T08:44:11;13.80;;;2.33;;
41568;SDS011;27283;52.504;13.358;2024-03-17T08:46:42;14.88;;;2.13;;
41568;SDS011;27283;52.504;13.358;2024-03-17T08:49:18;12.70;;;2.40;;
41568;SDS011;27283;52.504;13.358;2024-03-17T08:51:52;12.85;;;2.10;;
41568;SDS011;27283;52.504;13.358;2024-03-17T08:54:23;12.10;;;2.13;;
41568;SDS011;27283;52.504;13.358;2024-03-17T08:56:54;17.67;;;2.33;;
41568;SDS011;27283;52.504;13.358;2024-03-17T08:59:25;13.27;;;2.00;;
41568;SDS011;27283;52.504;13.358;2024-03-17T09:01:57;16.27;;;2.47;;
41568;SDS011;27283;52.504;13.358;2024-03-17T09:04:37;11.48;;;1.83;;
41568;SDS011;27283;52.504;13.358;2024-03-17T09:07:08;16.10;;;2.00;;
41568;SDS011;27283;52.504;13.358;2024-03-17T09:09:47;18.73;;;2.20;;
41568;SDS011;27283;52.504;13.358;2024-03-17T09:12:23;12.27;;;1.88;;
41568;SDS011;27283;52.504;13.358;2024-03-17T09:14:56;14.85;;;2.47;;
41568;SDS011;27283;52.504;13.358;2024-03-17T09:17:28;12.73;;;1.95;;
41568;SDS011;27283;52.504;13.358;2024-03-17T09:20:06;16.02;;;1.63;;
41568;SDS011;27283;52.504;13.358;2024-03-17T09:22:42;11.52;;;1.90;;
41568;SDS011;27283;52.504;13.358;2024-03-17T09:25:16;14.60;;;1.98;;
41568;SDS011;27283;52.504;13.358;2024-03-17T09:27:48;15.57;;;1.90;;
41568;SDS011;27283;52.504;13.358;2024-03-17T09:30:19;11.85;;;2.45;;
41568;SDS011;27283;52.504;13.358;2024-03-17T09:32:51;13.57;;;1.80;;
41568;SDS011;27283;52.504;13.358;2024-03-17T09:35:29;12.82;;;2.28;;
41568;SDS011;27283;52.504;13.358;2024-03-17T09:38:03;14.43;;;2.15;;
41568;SDS011;27283;52.504;13.358;2024-03-17T09:40:38;10.98;;;2.05;;
41568;SDS011;27283;52.504;13.358;2024-03-17T09:43:23;16.83;;;2.33;;
41568;SDS011;27283;52.504;13.358;2024-03-17T09:45:58;16.05;;;2.25;;
41568;SDS011;27283;52.504;13.358;2024-03-17T09:48:29;10.50;;;2.25;;
41568;SDS011;27283;52.504;13.358;2024-03-17T09:51:04;11.38;;;1.83;;
41568;SDS011;27283;52.504;13.358;2024-03-17T09:53:45;9.35;;;1.83;;
41568;SDS011;27283;52.504;13.358;2024-03-17T09:56:20;12.60;;;2.50;;
41568;SDS011;27283;52.504;13.358;2024-03-17T09:58:52;11.38;;;1.60;;
41568;SDS011;27283;52.504;13.358;2024-03-17T10:01:24;9.32;;;1.98;;
41568;SDS011;27283;52.504;13.358;2024-03-17T10:03:56;8.25;;;1.50;;
41568;SDS011;27283;52.504;13.358;2024-03-17T10:06:34;7.15;;;1.50;;
41568;SDS011;27283;52.504;13.358;2024-03-17T10:09:19;10.02;;;1.63;;
41568;SDS011;27283;52.504;13.358;2024-03-17T10:15:00;11.07;;;2.05;;
41568;SDS011;27283;52.504;13.358;2024-03-17T10:20:33;11.48;;;1.85;;
41568;SDS011;27283;52.504;13.358;2024-03-17T10:23:11;8.93;;;2.50;;
41568;SDS011;27283;52.504;13.358;2024-03-17T10:25:48;13.68;;;1.92;;
41568;SDS011;27283;52.504;13.358;2024-03-17T10:28:21;6.22;;;1.75;;
41568;SDS011;27283;52.504;13.358;2024-03-17T10:31:00;6.32;;;1.85;;
41568;SDS011;27283;52.504;13.358;2024-03-17T10:33:32;11.15;;;1.63;;
41568;SDS011;27283;52.504;13.358;2024-03-17T10:36:06;8.55;;;1.48;;
41568;SDS011;27283;52.504;13.358;2024-03-17T10:38:56;11.88;;;1.75;;
41568;SDS011;27283;52.504;13.358;2024-03-17T10:41:28;6.88;;;1.65;;
41568;SDS011;27283;52.504;13.358;2024-03-17T10:44:09;15.13;;;1.83;;
41568;SDS011;27283;52.504;13.358;2024-03-17T10:46:41;6.90;;;1.55;;
41568;SDS011;27283;52.504;13.358;2024-03-17T10:49:17;9.27;;;2.08;;
41568;SDS011;27283;52.504;13.358;2024-03-17T10:51:46;11.20;;;2.00;;
41568;SDS011;27283;52.504;13.358;2024-03-17T10:54:28;11.32;;;2.20;;
41568;SDS011;27283;52.504;13.358;2024-03-17T10:57:03;7.93;;;1.50;;
41568;SDS011;27283;52.504;13.358;2024-03-17T10:59:41;13.63;;;2.20;;
41568;SDS011;27283;52.504;13.358;2024-03-17T11:02:20;8.90;;;1.75;;
41568;SDS011;27283;52.504;13.358;2024-03-17T11:04:54;6.70;;;1.70;;
41568;SDS011;27283;52.504;13.358;2024-03-17T11:07:32;13.90;;;1.75;;
41568;SDS011;27283;52.504;13.358;2024-03-17T11:10:15;8.30;;;1.50;;
41568;SDS011;27283;52.504;13.358;2024-03-17T11:12:50;11.10;;;1.77;;
41568;SDS011;27283;52.504;13.358;2024-03-17T11:15:38;7.70;;;1.80;;
41568;SDS011;27283;52.504;13.358;2024-03-17T11:21:02;8.73;;;2.00;;
41568;SDS011;27283;52.504;13.358;2024-03-17T11:23:45;10.77;;;3.33;;
41568;SDS011;27283;52.504;13.358;2024-03-17T11:26:30;6.20;;;1.52;;
41568;SDS011;27283;52.504;13.358;2024-03-17T11:29:03;5.78;;;1.50;;
41568;SDS011;27283;52.504;13.358;2024-03-17T11:31:40;9.05;;;1.75;;
41568;SDS011;27283;52.504;13.358;2024-03-17T11:34:27;6.82;;;1.42;;
41568;SDS011;27283;52.504;13.358;2024-03-17T11:37:01;8.10;;;1.55;;
41568;SDS011;27283;52.504;13.358;2024-03-17T11:42:28;8.63;;;1.60;;
41568;SDS011;27283;52.504;13.358;2024-03-17T11:45:00;13.50;;;2.20;;
41568;SDS011;27283;52.504;13.358;2024-03-17T11:47:37;7.45;;;1.63;;
41568;SDS011;27283;52.504;13.358;2024-03-17T11:50:18;8.05;;;1.75;;
41568;SDS011;27283;52.504;13.358;2024-03-17T11:52:57;9.70;;;1.83;;
41568;SDS011;27283;52.504;13.358;2024-03-17T11:55:33;7.47;;;1.63;;
41568;SDS011;27283;52.504;13.358;2024-03-17T11:58:05;8.98;;;1.70;;
41568;SDS011;27283;52.504;13.358;2024-03-17T12:00:51;8.35;;;1.58;;
41568;SDS011;27283;52.504;13.358;2024-03-17T12:03:26;7.43;;;1.50;;
41568;SDS011;27283;52.504;13.358;2024-03-17T12:06:04;6.28;;;1.35;;
41568;SDS011;27283;52.504;13.358;2024-03-17T12:08:35;8.23;;;1.38;;
41568;SDS011;27283;52.504;13.358;2024-03-17T12:11:15;7.00;;;1.30;;
41568;SDS011;27283;52.504;13.358;2024-03-17T12:13:58;4.45;;;1.00;;
41568;SDS011;27283;52.504;13.358;2024-03-17T12:16:40;6.95;;;2.17;;
41568;SDS011;27283;52.504;13.358;2024-03-17T12:19:22;10.25;;;1.65;;
41568;SDS011;27283;52.504;13.358;2024-03-17T12:22:08;5.38;;;0.95;;
41568;SDS011;27283;52.504;13.358;2024-03-17T12:25:14;6.55;;;1.17;;
41568;SDS011;27283;52.504;13.358;2024-03-17T12:28:24;6.75;;;1.52;;
41568;SDS011;27283;52.504;13.358;2024-03-17T12:31:03;7.25;;;2.30;;
41568;SDS011;27283;52.504;13.358;2024-03-17T12:33:49;7.22;;;1.20;;
41568;SDS011;27283;52.504;13.358;2024-03-17T12:36:21;4.80;;;1.00;;
41568;SDS011;27283;52.504;13.358;2024-03-17T12:39:10;4.78;;;1.10;;
41568;SDS011;27283;52.504;13.358;2024-03-17T12:42:01;7.97;;;1.65;;
41568;SDS011;27283;52.504;13.358;2024-03-17T12:44:49;6.22;;;1.73;;
41568;SDS011;27283;52.504;13.358;2024-03-17T12:47:51;5.65;;;1.42;;
41568;SDS011;27283;52.504;13.358;2024-03-17T12:50:24;11.48;;;1.60;;
41568;SDS011;27283;52.504;13.358;2024-03-17T12:53:00;4.10;;;1.38;;
41568;SDS011;27283;52.504;13.358;2024-03-17T12:55:36;6.90;;;1.40;;
41568;SDS011;27283;52.504;13.358;2024-03-17T12:58:23;7.25;;;1.40;;
41568;SDS011;27283;52.504;13.358;2024-03-17T13:01:11;13.55;;;4.72;;
41568;SDS011;27283;52.504;13.358;2024-03-17T13:04:32;6.10;;;1.33;;
41568;SDS011;27283;52.504;13.358;2024-03-17T13:07:10;10.32;;;3.08;;
41568;SDS011;27283;52.504;13.358;2024-03-17T13:09:45;5.43;;;0.98;;
41568;SDS011;27283;52.504;13.358;2024-03-17T13:12:21;6.57;;;1.20;;
41568;SDS011;27283;52.504;13.358;2024-03-17T13:14:59;7.25;;;1.50;;
41568;SDS011;27283;52.504;13.358;2024-03-17T13:17:32;6.57;;;1.27;;
41568;SDS011;27283;52.504;13.358;2024-03-17T13:20:12;5.55;;;1.58;;
41568;SDS011;27283;52.504;13.358;2024-03-17T13:22:53;6.28;;;1.77;;
41568;SDS011;27283;52.504;13.358;2024-03-17T13:25:31;7.57;;;1.33;;
41568;SDS011;27283;52.504;13.358;2024-03-17T13:28:14;5.57;;;1.63;;
41568;SDS011;27283;52.504;13.358;2024-03-17T13:30:50;7.45;;;1.42;;
41568;SDS011;27283;52.504;13.358;2024-03-17T13:33:39;7.25;;;1.30;;
41568;SDS011;27283;52.504;13.358;2024-03-17T13:36:14;6.18;;;0.95;;
41568;SDS011;27283;52.504;13.358;2024-03-17T13:38:47;3.72;;;0.82;;
41568;SDS011;27283;52.504;13.358;2024-03-17T13:41:23;7.18;;;1.30;;
41568;SDS011;27283;52.504;13.358;2024-03-17T13:43:55;6.22;;;1.15;;
41568;SDS011;27283;52.504;13.358;2024-03-17T13:46:29;7.13;;;1.20;;
41568;SDS011;27283;52.504;13.358;2024-03-17T13:49:09;5.93;;;1.10;;
41568;SDS011;27283;52.504;13.358;2024-03-17T13:51:55;7.35;;;1.30;;
41568;SDS011;27283;52.504;13.358;2024-03-17T13:54:40;5.50;;;1.35;;
41568;SDS011;27283;52.504;13.358;2024-03-17T13:57:23;5.45;;;1.13;;
41568;SDS011;27283;52.504;13.358;2024-03-17T14:00:09;7.95;;;1.33;;
41568;SDS011;27283;52.504;13.358;2024-03-17T14:02:45;8.40;;;1.38;;
41568;SDS011;27283;52.504;13.358;2024-03-17T14:05:18;12.70;;;3.38;;
41568;SDS011;27283;52.504;13.358;2024-03-17T14:07:55;10.90;;;2.40;;
41568;SDS011;27283;52.504;13.358;2024-03-17T14:10:27;5.63;;;1.20;;
41568;SDS011;27283;52.504;13.358;2024-03-17T14:13:10;9.80;;;1.85;;
41568;SDS011;27283;52.504;13.358;2024-03-17T14:15:50;7.65;;;1.77;;
41568;SDS011;27283;52.504;13.358;2024-03-17T14:18:56;7.53;;;1.05;;
41568;SDS011;27283;52.504;13.358;2024-03-17T14:21:45;6.22;;;1.40;;
41568;SDS011;27283;52.504;13.358;2024-03-17T14:24:21;7.30;;;2.60;;
41568;SDS011;27283;52.504;13.358;2024-03-17T14:26:57;5.57;;;1.20;;
41568;SDS011;27283;52.504;13.358;2024-03-17T14:29:30;3.83;;;1.10;;
41568;SDS011;27283;52.504;13.358;2024-03-17T14:32:05;5.53;;;1.55;;
41568;SDS011;27283;52.504;13.358;2024-03-17T14:34:41;5.35;;;1.27;;
41568;SDS011;27283;52.504;13.358;2024-03-17T14:37:19;6.05;;;1.10;;
41568;SDS011;27283;52.504;13.358;2024-03-17T14:39:59;8.18;;;1.13;;
41568;SDS011;27283;52.504;13.358;2024-03-17T14:42:44;10.23;;;2.95;;
41568;SDS011;27283;52.504;13.358;2024-03-17T14:48:42;7.57;;;1.20;;
41568;SDS011;27283;52.504;13.358;2024-03-17T14:51:36;5.63;;;1.02;;
41568;SDS011;27283;52.504;13.358;2024-03-17T14:54:50;5.72;;;1.02;;
41568;SDS011;27283;52.504;13.358;2024-03-17T14:57:44;7.55;;;1.10;;
41568;SDS011;27283;52.504;13.358;2024-03-17T15:00:25;7.80;;;2.83;;
41568;SDS011;27283;52.504;13.358;2024-03-17T15:03:04;2.92;;;1.10;;
41568;SDS011;27283;52.504;13.358;2024-03-17T15:06:01;8.07;;;1.20;;
41568;SDS011;27283;52.504;13.358;2024-03-17T15:08:57;5.68;;;1.30;;
41568;SDS011;27283;52.504;13.358;2024-03-17T15:11:29;5.15;;;1.05;;
41568;SDS011;27283;52.504;13.358;2024-03-17T15:14:07;7.40;;;1.83;;
41568;SDS011;27283;52.504;13.358;2024-03-17T15:16:40;6.88;;;1.33;;
41568;SDS011;27283;52.504;13.358;2024-03-17T15:19:11;6.10;;;1.50;;
41568;SDS011;27283;52.504;13.358;2024-03-17T15:21:49;4.97;;;1.30;;
41568;SDS011;27283;52.504;13.358;2024-03-17T15:24:20;6.05;;;1.20;;
41568;SDS011;27283;52.504;13.358;2024-03-17T15:27:02;6.55;;;1.38;;
41568;SDS011;27283;52.504;13.358;2024-03-17T15:29:39;7.15;;;1.30;;
41568;SDS011;27283;52.504;13.358;2024-03-17T15:32:10;9.05;;;1.70;;